Time;durP1;ratioP1;P1;durP2;ratioP2;P2;SDS_P1;SDS_P2;PMS_P1;PMS_P2;Temp;Humidity;BMP_temperature;BMP_pressure;BME280_temperature;BME280_humidity;BME280_pressure;Samples;Min_cycle;Max_cycle;Signal;HPM_P1;HPM_P2
2022/08/15 00:01:37;;;;;;;10.75;5.78;;;;;;;19.01;100.00;98695.84;1709993;82;21430;-76
2022/08/15 00:04:02;;;;;;;7.10;6.12;;;;;;;18.97;100.00;98687.05;1702326;82;21011;-76
2022/08/15 00:06:42;;;;;;;6.78;5.90;;;;;;;18.94;100.00;98697.37;1672424;84;21028;-76
2022/08/15 00:09:18;;;;;;;9.08;5.17;;;;;;;18.91;100.00;98691.05;1703376;82;21260;-76
2022/08/15 00:11:49;;;;;;;10.68;6.00;;;;;;;18.88;100.00;98684.24;1714970;82;21001;-75
2022/08/15 00:14:21;;;;;;;7.72;5.95;;;;;;;18.86;100.00;98686.17;1721327;83;21045;-76
2022/08/15 00:16:49;;;;;;;7.87;5.95;;;;;;;18.80;100.00;98676.17;1706591;83;21031;-76
2022/08/15 00:19:20;;;;;;;11.05;5.42;;;;;;;18.73;100.00;98672.42;1703546;82;21487;-76
2022/08/15 00:21:50;;;;;;;8.70;5.55;;;;;;;18.66;100.00;98677.03;1705113;82;21641;-75
2022/08/15 00:24:20;;;;;;;6.83;5.95;;;;;;;18.60;100.00;98673.13;1683366;84;21071;-75
2022/08/15 00:26:48;;;;;;;7.05;6.17;;;;;;;18.57;100.00;98661.53;1679951;84;21038;-76
2022/08/15 00:29:16;;;;;;;7.33;5.45;;;;;;;18.54;100.00;98666.58;1684110;83;21034;-75
2022/08/15 00:31:43;;;;;;;5.67;5.17;;;;;;;18.50;100.00;98666.48;1683555;85;21011;-75
2022/08/15 00:34:23;;;;;;;8.35;5.67;;;;;;;18.46;100.00;98657.66;1710426;83;21147;-75
2022/08/15 00:36:50;;;;;;;6.22;5.58;;;;;;;18.41;100.00;98658.05;1704597;82;21137;-75
2022/08/15 00:39:22;;;;;;;7.17;6.47;;;;;;;18.37;100.00;98659.31;1705615;82;21014;-75
2022/08/15 00:41:50;;;;;;;9.08;6.15;;;;;;;18.31;100.00;98657.20;1715997;83;21093;-75
2022/08/15 00:47:20;;;;;;;7.92;6.03;;;;;;;18.23;100.00;98660.95;1708493;83;21139;-75
2022/08/15 00:49:47;;;;;;;6.42;5.92;;;;;;;18.19;100.00;98666.13;1709735;81;21054;-76
2022/08/15 00:52:24;;;;;;;11.93;6.33;;;;;;;18.16;100.00;98661.15;1676877;85;20964;-76
2022/08/15 00:55:00;;;;;;;8.65;6.17;;;;;;;18.14;100.00;98657.33;1672562;84;21105;-76
2022/08/15 00:57:36;;;;;;;10.00;6.05;;;;;;;18.14;100.00;98661.76;1703504;82;21019;-76
2022/08/15 01:00:15;;;;;;;6.97;6.20;;;;;;;18.13;100.00;98664.03;1702563;83;21120;-76
2022/08/15 01:02:41;;;;;;;8.23;6.00;;;;;;;18.14;100.00;98657.81;1706328;82;20966;-76
2022/08/15 01:05:15;;;;;;;7.42;6.42;;;;;;;18.18;100.00;98667.95;1702975;82;21559;-76
2022/08/15 01:07:48;;;;;;;12.10;6.65;;;;;;;18.20;100.00;98663.36;1708988;82;21018;-75
2022/08/15 01:10:14;;;;;;;7.12;6.53;;;;;;;18.23;100.00;98659.16;1710179;83;21029;-76
2022/08/15 01:12:41;;;;;;;8.63;7.12;;;;;;;18.24;100.00;98659.51;1676928;84;21126;-76
2022/08/15 01:15:13;;;;;;;8.63;6.65;;;;;;;18.27;100.00;98661.53;1637642;85;21112;-76
2022/08/15 01:17:39;;;;;;;7.25;6.55;;;;;;;18.29;100.00;98656.97;1651132;84;21470;-76
2022/08/15 01:20:17;;;;;;;7.47;6.78;;;;;;;18.30;100.00;98646.80;1649707;86;21075;-77
2022/08/15 01:23:26;;;;;;;11.90;7.00;;;;;;;18.33;100.00;98643.91;1662851;84;21552;-77
2022/08/15 01:25:58;;;;;;;8.00;6.60;;;;;;;18.37;100.00;98638.73;1661963;84;21794;-76
2022/08/15 01:28:35;;;;;;;13.35;7.58;;;;;;;18.39;100.00;98640.72;1712542;83;21089;-76
2022/08/15 01:31:08;;;;;;;7.85;7.08;;;;;;;18.40;100.00;98637.13;1691719;83;21065;-76
2022/08/15 01:33:45;;;;;;;6.65;6.05;;;;;;;18.42;100.00;98635.19;1701990;83;21015;-76
2022/08/15 01:36:12;;;;;;;8.93;6.40;;;;;;;18.44;100.00;98630.15;1686797;83;21061;-76
2022/08/15 01:38:43;;;;;;;10.00;7.05;;;;;;;18.46;100.00;98632.65;1720068;82;21102;-76
2022/08/15 01:41:37;;;;;;;9.93;6.58;;;;;;;18.49;100.00;98627.95;1720526;81;21057;-76
2022/08/15 01:44:12;;;;;;;9.75;7.55;;;;;;;18.54;100.00;98628.87;1720207;82;21049;-76
2022/08/15 01:46:53;;;;;;;8.45;7.75;;;;;;;18.57;100.00;98633.40;1719420;82;20994;-77
2022/08/15 01:49:45;;;;;;;10.93;7.22;;;;;;;18.62;100.00;98647.48;1685453;84;21130;-76
2022/08/15 01:52:12;;;;;;;7.80;7.10;;;;;;;18.67;100.00;98652.36;1684119;83;21254;-76
2022/08/15 01:54:41;;;;;;;8.83;7.58;;;;;;;18.71;100.00;98652.45;1709583;83;21056;-75
2022/08/15 01:57:08;;;;;;;8.85;8.03;;;;;;;18.76;100.00;98656.84;1679736;85;20996;-76
2022/08/15 01:59:35;;;;;;;8.88;7.95;;;;;;;18.78;100.00;98658.38;1706161;82;21613;-76
2022/08/15 02:02:17;;;;;;;8.98;6.72;;;;;;;18.81;100.00;98650.66;1683351;84;20988;-76
2022/08/15 02:07:43;;;;;;;8.65;7.85;;;;;;;18.83;100.00;98646.92;1710927;81;20991;-76
2022/08/15 02:10:10;;;;;;;12.37;8.35;;;;;;;18.84;100.00;98643.80;1703820;82;20983;-76
2022/08/15 02:12:40;;;;;;;9.80;7.28;;;;;;;18.85;100.00;98641.52;1680518;84;21228;-76
2022/08/15 02:15:20;;;;;;;7.45;6.78;;;;;;;18.85;100.00;98641.03;1647308;86;21642;-76
2022/08/15 02:17:47;;;;;;;9.33;8.43;;;;;;;18.87;100.00;98635.63;1708881;81;21147;-76
2022/08/15 02:20:15;;;;;;;8.10;6.87;;;;;;;18.89;100.00;98631.06;1701538;82;21030;-76
2022/08/15 02:22:42;;;;;;;10.60;8.10;;;;;;;18.88;100.00;98624.96;1681880;84;21523;-76
2022/08/15 02:25:08;;;;;;;8.73;7.85;;;;;;;18.86;100.00;98632.17;1707867;83;20970;-76
2022/08/15 02:27:37;;;;;;;10.90;8.08;;;;;;;18.86;100.00;98640.55;1705402;83;21122;-76
2022/08/15 02:30:10;;;;;;;10.05;7.70;;;;;;;18.88;100.00;98643.89;1702878;82;21157;-76
2022/08/15 02:32:39;;;;;;;11.75;7.67;;;;;;;18.90;100.00;98637.52;1681207;83;21120;-76
2022/08/15 02:35:07;;;;;;;12.23;7.95;;;;;;;18.93;100.00;98646.47;1715090;83;21041;-76
2022/08/15 02:37:35;;;;;;;8.65;7.85;;;;;;;18.99;100.00;98649.03;1708522;83;21392;-76
2022/08/15 02:40:06;;;;;;;8.00;7.20;;;;;;;19.02;100.00;98638.22;1703545;82;20984;-76
2022/08/15 02:42:49;;;;;;;9.50;7.08;;;;;;;19.04;100.00;98646.82;1718195;82;21150;-76
2022/08/15 02:45:16;;;;;;;8.85;8.05;;;;;;;19.07;100.00;98653.63;1681285;84;20948;-76
2022/08/15 02:47:46;;;;;;;8.53;7.80;;;;;;;19.08;100.00;98645.58;1678791;84;21061;-76
2022/08/15 02:50:15;;;;;;;8.10;7.37;;;;;;;19.10;100.00;98640.17;1700378;82;21008;-76
2022/08/15 02:52:44;;;;;;;9.63;7.40;;;;;;;19.09;100.00;98635.39;1678421;84;21104;-76
2022/08/15 02:55:11;;;;;;;10.72;7.75;;;;;;;19.07;100.00;98637.33;1682684;84;21154;-73
2022/08/15 02:57:38;;;;;;;8.85;8.05;;;;;;;19.04;100.00;98623.10;1669812;85;21084;-75
2022/08/15 03:00:09;;;;;;;11.53;7.80;;;;;;;19.02;100.00;98633.43;1641179;86;21608;-76
2022/08/15 03:02:58;;;;;;;10.75;7.75;;;;;;;18.97;100.00;98622.01;1649211;86;21094;-77
2022/08/15 03:05:28;;;;;;;11.20;7.65;;;;;;;18.94;100.00;98618.32;1708453;83;21055;-77
2022/08/15 03:07:54;;;;;;;8.20;7.47;;;;;;;18.91;100.00;98619.91;1708482;83;21154;-76
2022/08/15 03:10:21;;;;;;;11.20;7.90;;;;;;;18.88;100.00;98617.54;1677856;84;21539;-76
2022/08/15 03:12:53;;;;;;;24.67;8.70;;;;;;;18.87;100.00;98619.34;1647917;86;21143;-76
2022/08/15 03:15:24;;;;;;;8.87;8.10;;;;;;;18.87;100.00;98612.75;1642304;84;21064;-76
2022/08/15 03:17:52;;;;;;;9.20;8.08;;;;;;;18.87;100.00;98610.12;1668493;84;20989;-70
2022/08/15 03:20:19;;;;;;;11.95;8.30;;;;;;;18.88;100.00;98612.27;1706433;83;21151;-70
2022/08/15 03:22:48;;;;;;;9.35;8.50;;;;;;;18.90;100.00;98611.17;1664570;85;21067;-70
2022/08/15 03:25:25;;;;;;;9.55;8.68;;;;;;;18.91;100.00;98604.94;1697695;83;21744;-70
2022/08/15 03:28:00;;;;;;;10.30;8.60;;;;;;;18.94;100.00;98609.09;1668292;85;21044;-70
2022/08/15 03:30:27;;;;;;;8.30;7.50;;;;;;;18.98;100.00;98610.98;1651877;86;20988;-71
2022/08/15 03:32:56;;;;;;;9.60;8.08;;;;;;;19.00;100.00;98609.02;1673409;83;21786;-71
2022/08/15 03:35:28;;;;;;;10.15;8.08;;;;;;;19.01;100.00;98606.73;1704335;83;21060;-71
2022/08/15 03:37:57;;;;;;;9.60;8.68;;;;;;;19.07;100.00;98607.50;1703382;83;21027;-71
2022/08/15 03:40:25;;;;;;;11.05;8.78;;;;;;;19.19;100.00;98612.48;1698064;82;21027;-71
2022/08/15 03:43:15;;;;;;;10.30;8.03;;;;;;;19.42;100.00;98613.05;1711164;82;21430;-71
2022/08/15 03:45:51;;;;;;;8.80;7.95;;;;;;;19.70;100.00;98618.47;1681853;84;21258;-71
2022/08/15 03:48:21;;;;;;;10.08;8.30;;;;;;;20.03;100.00;98623.72;1682416;84;21264;-70
2022/08/15 03:50:51;;;;;;;10.23;8.40;;;;;;;20.24;100.00;98626.98;1693925;82;21203;-71
2022/08/15 03:53:18;;;;;;;8.50;7.55;;;;;;;20.37;100.00;98624.06;1683611;84;21039;-71
2022/08/15 03:55:45;;;;;;;12.43;8.28;;;;;;;20.41;100.00;98624.92;1668741;84;21127;-71
2022/08/15 03:58:12;;;;;;;9.48;8.58;;;;;;;20.35;100.00;98618.06;1695696;83;21138;-71
2022/08/15 04:00:45;;;;;;;9.43;8.53;;;;;;;20.32;100.00;98626.27;1705500;83;20963;-71
2022/08/15 04:03:28;;;;;;;8.93;8.03;;;;;;;20.30;100.00;98623.29;1701642;83;21034;-71
2022/08/15 04:06:00;;;;;;;9.33;7.58;;;;;;;20.29;100.00;98625.58;1694758;83;21106;-71
2022/08/15 04:08:31;;;;;;;8.95;8.10;;;;;;;20.25;100.00;98626.84;1691887;83;21113;-71
2022/08/15 04:11:01;;;;;;;8.85;8.13;;;;;;;20.22;100.00;98626.30;1699217;83;21200;-71
2022/08/15 04:13:27;;;;;;;9.00;8.20;;;;;;;20.20;100.00;98615.88;1712698;83;21051;-71
2022/08/15 04:15:59;;;;;;;8.10;7.28;;;;;;;20.19;100.00;98614.21;1683850;83;21011;-71
2022/08/15 04:18:27;;;;;;;9.10;8.20;;;;;;;20.18;100.00;98611.75;1707622;82;21008;-71
2022/08/15 04:20:55;;;;;;;9.50;8.50;;;;;;;20.17;100.00;98616.19;1698958;82;20977;-71
2022/08/15 04:23:22;;;;;;;11.30;8.80;;;;;;;20.16;100.00;98614.53;1703769;82;21137;-71
2022/08/15 04:25:49;;;;;;;8.50;7.70;;;;;;;20.19;100.00;98618.66;1700450;82;20996;-71
2022/08/15 04:28:18;;;;;;;8.83;7.62;;;;;;;20.22;100.00;98611.28;1702369;83;21077;-71
2022/08/15 04:30:47;;;;;;;8.55;7.75;;;;;;;20.24;100.00;98620.39;1705128;82;21439;-71
2022/08/15 04:33:18;;;;;;;9.15;8.18;;;;;;;20.27;100.00;98614.82;1706227;83;21235;-71
2022/08/15 04:35:50;;;;;;;9.30;8.38;;;;;;;20.35;100.00;98622.03;1658197;84;21132;-71
2022/08/15 04:38:17;;;;;;;10.18;8.18;;;;;;;20.42;100.00;98614.70;1667890;84;21591;-71
2022/08/15 04:40:45;;;;;;;10.93;7.75;;;;;;;20.50;100.00;98616.63;1709558;83;21054;-71
2022/08/15 04:43:12;;;;;;;9.53;7.67;;;;;;;20.58;100.00;98618.86;1696201;83;21030;-71
2022/08/15 04:45:40;;;;;;;9.53;8.48;;;;;;;20.68;100.00;98615.34;1706533;83;20984;-71
2022/08/15 04:48:08;;;;;;;8.75;7.83;;;;;;;20.76;100.00;98613.64;1683902;83;21152;-71
2022/08/15 04:50:37;;;;;;;10.03;7.75;;;;;;;20.81;100.00;98618.45;1679428;83;20973;-70
2022/08/15 04:53:07;;;;;;;8.15;7.33;;;;;;;20.85;100.00;98611.89;1671791;85;21122;-70
2022/08/15 04:55:43;;;;;;;8.20;7.50;;;;;;;20.87;100.00;98610.77;1671795;84;21084;-70
2022/08/15 04:58:15;;;;;;;8.35;7.45;;;;;;;20.87;100.00;98605.48;1640425;85;21078;-70
2022/08/15 05:00:50;;;;;;;8.58;7.75;;;;;;;20.90;100.00;98606.52;1653532;86;21816;-70
2022/08/15 05:03:19;;;;;;;11.25;8.15;;;;;;;20.93;100.00;98598.28;1705370;82;21057;-71
2022/08/15 05:05:53;;;;;;;7.55;6.85;;;;;;;20.96;100.00;98591.38;1704657;82;21046;-71
2022/08/15 05:08:21;;;;;;;9.00;7.57;;;;;;;20.97;100.00;98593.05;1681886;83;21122;-71
2022/08/15 05:11:00;;;;;;;11.18;8.48;;;;;;;21.01;100.00;98594.04;1702331;83;21033;-71
2022/08/15 05:13:30;;;;;;;9.58;8.68;;;;;;;21.05;100.00;98596.73;1717975;83;21257;-71
2022/08/15 05:15:59;;;;;;;8.33;7.67;;;;;;;21.11;100.00;98585.56;1686550;83;21498;-71
2022/08/15 05:18:28;;;;;;;9.00;8.10;;;;;;;21.16;100.00;98589.91;1663231;85;21037;-71
2022/08/15 05:20:56;;;;;;;8.25;7.50;;;;;;;21.19;100.00;98586.45;1653335;85;20980;-70
2022/08/15 05:23:24;;;;;;;9.68;7.62;;;;;;;21.21;100.00;98592.94;1679620;84;20976;-71
2022/08/15 05:25:56;;;;;;;9.73;7.90;;;;;;;21.23;100.00;98591.80;1670799;84;21102;-71
2022/08/15 05:28:23;;;;;;;11.00;7.95;;;;;;;21.27;100.00;98593.17;1680924;83;21521;-71
2022/08/15 05:31:13;;;;;;;8.20;7.40;;;;;;;21.31;100.00;98576.52;1678112;84;21133;-71
2022/08/15 05:33:42;;;;;;;11.08;7.58;;;;;;;21.35;100.00;98578.36;1679874;83;21572;-71
2022/08/15 05:36:09;;;;;;;9.05;7.92;;;;;;;21.37;100.00;98583.84;1690442;83;21585;-73
2022/08/15 05:38:46;;;;;;;8.80;7.87;;;;;;;21.40;100.00;98580.03;1675256;83;21760;-73
2022/08/15 05:41:38;;;;;;;8.28;7.47;;;;;;;21.39;100.00;98576.56;1703206;82;21085;-71
2022/08/15 05:44:28;;;;;;;8.35;7.58;;;;;;;21.38;100.00;98589.48;1716067;83;21089;-71
2022/08/15 05:47:09;;;;;;;9.85;7.40;;;;;;;21.38;100.00;98585.51;1716273;82;21042;-70
2022/08/15 05:49:53;;;;;;;10.58;7.90;;;;;;;21.40;100.00;98590.62;1704300;83;21054;-70
2022/08/15 05:52:41;;;;;;;9.18;8.10;;;;;;;21.46;100.00;98590.02;1689854;83;21993;-71
2022/08/15 05:55:40;;;;;;;7.92;7.08;;;;;;;21.55;100.00;98600.52;1699603;83;21109;-70
2022/08/15 05:58:30;;;;;;;8.73;7.95;;;;;;;21.67;100.00;98593.15;1695407;83;21074;-70
2022/08/15 06:01:18;;;;;;;9.45;8.23;;;;;;;21.78;100.00;98598.70;1690450;83;21081;-70
2022/08/15 06:03:53;;;;;;;8.43;7.62;;;;;;;21.92;100.00;98594.98;1700567;81;21025;-70
2022/08/15 06:06:25;;;;;;;11.22;7.17;;;;;;;22.08;99.97;98600.05;1700942;82;21007;-71
2022/08/15 06:08:55;;;;;;;8.43;7.72;;;;;;;22.21;98.99;98598.63;1702012;83;21063;-71
2022/08/15 06:11:27;;;;;;;7.55;6.95;;;;;;;22.29;97.99;98604.46;1704951;83;20979;-70
2022/08/15 06:17:31;;;;;;;8.38;7.22;;;;;;;22.41;96.98;98601.85;1696804;83;21012;-71
2022/08/15 06:20:03;;;;;;;8.33;7.62;;;;;;;22.44;96.61;98604.19;1685839;83;21438;-71
2022/08/15 06:22:53;;;;;;;12.30;7.90;;;;;;;22.47;96.05;98597.75;1671626;84;21218;-72
2022/08/15 06:25:49;;;;;;;9.13;8.23;;;;;;;22.47;95.76;98600.39;1648034;84;21653;-70
2022/08/15 06:28:40;;;;;;;7.67;6.97;;;;;;;22.47;95.22;98599.91;1668208;84;21104;-70
2022/08/15 06:31:31;;;;;;;8.68;6.58;;;;;;;22.52;95.12;98588.34;1633031;85;21081;-71
2022/08/15 06:34:23;;;;;;;7.90;7.05;;;;;;;22.65;95.14;98592.67;1674664;83;21257;-72
2022/08/15 06:37:19;;;;;;;7.25;6.75;;;;;;;22.77;93.55;98603.86;1694761;83;21051;-71
2022/08/15 06:40:27;;;;;;;8.23;7.53;;;;;;;22.96;93.47;98603.56;1688887;83;21074;-73
2022/08/15 06:43:01;;;;;;;9.08;6.92;;;;;;;23.13;91.61;98593.80;1692806;83;21114;-71
2022/08/15 06:45:38;;;;;;;7.72;7.03;;;;;;;23.35;90.02;98585.20;1696640;84;21383;-74
2022/08/15 06:48:10;;;;;;;8.93;7.30;;;;;;;23.57;88.88;98586.88;1673638;85;21230;-72
2022/08/15 06:50:49;;;;;;;7.75;6.97;;;;;;;23.79;86.71;98592.80;1667626;84;21036;-72
2022/08/15 06:53:42;;;;;;;7.62;6.95;;;;;;;23.99;85.02;98593.26;1648326;85;21534;-72
2022/08/15 06:56:32;;;;;;;7.47;6.78;;;;;;;24.19;84.15;98590.54;1617712;85;21086;-74
2022/08/15 06:59:29;;;;;;;7.30;6.70;;;;;;;24.35;82.55;98590.54;1655876;86;21491;-73
2022/08/15 07:02:23;;;;;;;7.70;7.00;;;;;;;24.51;81.80;98585.64;1638419;85;21594;-70
2022/08/15 07:05:08;;;;;;;7.37;6.60;;;;;;;24.58;79.66;98584.47;1655758;84;21025;-72
2022/08/15 07:07:57;;;;;;;7.60;6.90;;;;;;;24.51;79.16;98574.19;1712756;82;20971;-71
2022/08/15 07:10:41;;;;;;;14.07;7.05;;;;;;;24.29;79.38;98559.83;1705047;82;20991;-72
2022/08/15 07:13:19;;;;;;;7.65;6.95;;;;;;;24.11;79.20;98570.66;1709707;83;21053;-72
2022/08/15 07:16:16;;;;;;;7.50;6.83;;;;;;;23.95;79.68;98570.22;1684600;84;21545;-73
2022/08/15 07:18:47;;;;;;;7.45;6.42;;;;;;;23.93;80.79;98576.20;1718888;81;21588;-73
2022/08/15 07:21:21;;;;;;;8.33;6.53;;;;;;;24.08;80.07;98576.81;1719365;83;20966;-73
2022/08/15 07:24:09;;;;;;;7.70;7.00;;;;;;;24.21;80.31;98585.89;1684824;83;20971;-73
2022/08/15 07:26:59;;;;;;;8.00;7.10;;;;;;;24.35;80.15;98589.21;1688997;84;21051;-72
2022/08/15 07:29:38;;;;;;;7.70;6.90;;;;;;;24.49;80.59;98596.13;1679475;84;21304;-74
2022/08/15 07:32:17;;;;;;;7.50;6.87;;;;;;;24.59;78.41;98596.23;1648401;86;21609;-73
2022/08/15 07:35:05;;;;;;;9.95;6.72;;;;;;;24.62;77.09;98595.88;1656572;85;21124;-72
2022/08/15 07:37:35;;;;;;;7.50;6.80;;;;;;;24.65;77.03;98596.87;1663847;85;21509;-73
2022/08/15 07:40:20;;;;;;;6.72;6.17;;;;;;;24.68;76.78;98603.17;1652957;86;21090;-72
2022/08/15 07:42:48;;;;;;;7.70;7.05;;;;;;;24.78;76.81;98603.47;1670298;83;21356;-72
2022/08/15 07:45:38;;;;;;;9.60;6.50;;;;;;;24.92;76.46;98617.34;1653779;85;21126;-74
2022/08/15 07:48:32;;;;;;;8.70;6.83;;;;;;;25.03;75.75;98624.94;1649635;85;21570;-74
2022/08/15 07:51:33;;;;;;;6.58;5.97;;;;;;;25.05;74.15;98618.95;1643493;86;21079;-72
2022/08/15 07:54:53;;;;;;;8.13;7.33;;;;;;;25.04;73.53;98623.94;1652279;86;21032;-70
2022/08/15 07:57:41;;;;;;;7.42;6.72;;;;;;;24.97;73.41;98618.52;1677908;84;21427;-72
2022/08/15 08:00:30;;;;;;;9.55;6.58;;;;;;;24.96;72.95;98624.01;1670142;83;21027;-72
2022/08/15 08:06:50;;;;;;;7.80;6.22;;;;;;;25.22;72.71;98615.16;1668634;83;21102;-74
2022/08/15 08:13:06;;;;;;;9.33;6.75;;;;;;;25.37;72.05;98619.23;1604480;87;21129;-72
2022/08/15 08:15:49;;;;;;;7.75;6.45;;;;;;;25.45;71.83;98611.17;1638913;85;21296;-72
2022/08/15 08:36:09;;;;;;;9.40;6.40;;;;;;;25.94;66.75;98564.14;1668799;83;21155;-73
2022/08/15 08:38:48;;;;;;;7.00;6.40;;;;;;;25.99;67.14;98571.89;1655815;82;21091;-72
2022/08/15 08:41:37;;;;;;;6.90;6.20;;;;;;;26.06;67.91;98576.81;1675109;84;22173;-72
2022/08/15 08:44:28;;;;;;;7.25;6.55;;;;;;;26.19;67.79;98570.00;1655570;84;21028;-75
2022/08/15 08:47:13;;;;;;;8.33;6.70;;;;;;;26.32;65.73;98566.23;1693411;83;20970;-72
2022/08/15 08:50:21;;;;;;;7.50;6.15;;;;;;;26.34;65.50;98561.03;1693848;82;21059;-73
2022/08/15 08:53:39;;;;;;;10.35;6.58;;;;;;;26.40;65.25;98552.78;1698194;82;21286;-70
2022/08/15 08:56:16;;;;;;;7.50;6.72;;;;;;;26.40;63.66;98548.78;1702732;82;21133;-71
2022/08/15 08:58:52;;;;;;;6.80;5.97;;;;;;;26.34;62.77;98526.38;1703063;82;21441;-71
2022/08/15 09:01:23;;;;;;;6.85;6.15;;;;;;;26.37;64.96;98533.19;1714638;82;21093;-72
2022/08/15 09:04:05;;;;;;;7.55;6.65;;;;;;;26.45;64.82;98550.89;1713142;82;21131;-77
2022/08/15 09:06:40;;;;;;;9.90;7.10;;;;;;;26.51;64.24;98574.16;1718092;82;21522;-75
2022/08/15 09:09:12;;;;;;;9.03;6.42;;;;;;;26.50;63.61;98563.16;1714773;82;21127;-72
2022/08/15 09:11:52;;;;;;;7.90;7.20;;;;;;;26.45;64.64;98558.89;1715531;83;20945;-78
2022/08/15 09:14:34;;;;;;;10.95;6.83;;;;;;;26.45;65.12;98559.72;1712196;82;21708;-82
2022/08/15 09:17:13;;;;;;;7.72;6.37;;;;;;;26.52;65.39;98554.47;1707311;82;21011;-80
2022/08/15 09:19:54;;;;;;;6.53;5.80;;;;;;;26.57;63.61;98552.91;1680479;83;21016;-81
2022/08/15 09:22:21;;;;;;;7.58;6.67;;;;;;;26.57;63.26;98554.23;1678942;83;21207;-79
2022/08/15 09:24:47;;;;;;;7.87;6.10;;;;;;;26.56;63.20;98555.25;1671595;82;21184;-73
2022/08/15 09:27:34;;;;;;;7.20;6.25;;;;;;;26.56;61.69;98565.09;1672279;83;21609;-69
2022/08/15 09:30:08;;;;;;;8.05;6.00;;;;;;;26.54;62.80;98558.61;1665500;83;21232;-74
2022/08/15 09:32:40;;;;;;;7.83;5.40;;;;;;;26.52;61.02;98543.81;1708334;82;21062;-73
2022/08/15 09:35:37;;;;;;;8.23;5.70;;;;;;;26.53;61.81;98552.13;1718741;83;21289;-74
2022/08/15 09:38:30;;;;;;;6.33;5.75;;;;;;;26.55;62.47;98556.27;1710800;82;21421;-72
2022/08/15 09:41:29;;;;;;;8.58;6.62;;;;;;;26.60;61.41;98557.84;1715581;82;21098;-73
2022/08/15 09:44:20;;;;;;;9.28;6.42;;;;;;;26.64;61.68;98548.96;1710389;83;21058;-73
2022/08/15 09:47:13;;;;;;;7.03;6.25;;;;;;;26.67;62.67;98551.26;1715764;82;21555;-74
2022/08/15 09:50:09;;;;;;;10.48;6.30;;;;;;;26.75;63.66;98542.64;1716332;82;21401;-75
2022/08/15 09:52:58;;;;;;;8.60;5.72;;;;;;;26.93;61.83;98545.39;1667487;83;21015;-76
2022/08/15 09:55:46;;;;;;;11.90;6.08;;;;;;;27.16;61.16;98558.06;1717951;82;20960;-73
2022/08/15 09:58:28;;;;;;;8.15;5.60;;;;;;;27.29;60.18;98550.67;1706787;81;21461;-74
2022/08/15 10:01:23;;;;;;;9.35;5.80;;;;;;;27.41;59.78;98556.62;1693963;84;21421;-73
2022/08/15 10:03:55;;;;;;;7.83;6.00;;;;;;;27.50;59.21;98557.33;1701531;82;21782;-73
2022/08/15 10:06:29;;;;;;;7.07;6.37;;;;;;;27.54;59.72;98557.77;1678706;84;21129;-75
2022/08/15 10:09:12;;;;;;;10.32;5.58;;;;;;;27.46;60.09;98558.72;1708302;82;20977;-76
2022/08/15 10:11:49;;;;;;;7.37;6.10;;;;;;;27.33;60.21;98559.95;1712448;83;21049;-74
2022/08/15 10:14:26;;;;;;;9.93;5.92;;;;;;;27.21;60.18;98554.30;1698209;83;22127;-74
2022/08/15 10:17:04;;;;;;;12.15;5.83;;;;;;;27.07;59.39;98556.53;1696265;82;21223;-74
2022/08/15 10:19:38;;;;;;;9.15;5.97;;;;;;;26.90;59.10;98559.93;1685070;83;21578;-73
2022/08/15 10:22:28;;;;;;;9.90;5.10;;;;;;;26.78;58.41;98556.09;1694032;83;21094;-76
2022/08/15 10:25:20;;;;;;;9.20;5.00;;;;;;;26.73;56.12;98562.02;1698541;84;21197;-74
2022/08/15 10:28:16;;;;;;;11.97;5.05;;;;;;;26.69;55.36;98565.23;1687910;83;21823;-75
2022/08/15 10:31:02;;;;;;;13.18;5.80;;;;;;;26.67;55.93;98544.09;1693803;82;21110;-78
2022/08/15 10:33:35;;;;;;;13.00;5.92;;;;;;;26.67;56.94;98537.41;1699822;83;21100;-73
2022/08/15 10:36:20;;;;;;;11.50;5.78;;;;;;;26.73;56.17;98537.17;1705207;82;21064;-78
2022/08/15 10:39:29;;;;;;;12.05;5.50;;;;;;;26.80;57.25;98538.56;1693804;83;21528;-75
2022/08/15 10:42:40;;;;;;;8.90;5.20;;;;;;;26.89;57.45;98545.44;1696464;82;21207;-74
2022/08/15 10:45:18;;;;;;;11.73;5.65;;;;;;;27.06;57.63;98545.53;1703981;83;21082;-73
2022/08/15 10:48:01;;;;;;;13.68;5.30;;;;;;;27.21;56.47;98554.30;1701536;83;20987;-73
2022/08/15 10:50:59;;;;;;;11.20;5.70;;;;;;;27.21;57.43;98542.28;1696521;83;21069;-74
2022/08/15 10:53:47;;;;;;;12.78;5.60;;;;;;;27.17;56.74;98556.23;1691742;83;21133;-76
2022/08/15 10:56:37;;;;;;;8.00;5.22;;;;;;;27.03;56.84;98552.08;1663063;84;21085;-75
2022/08/15 10:59:17;;;;;;;10.70;5.75;;;;;;;26.90;57.78;98558.59;1631825;85;22312;-74
2022/08/15 11:01:51;;;;;;;9.55;5.33;;;;;;;26.88;59.52;98553.13;1646502;85;21065;-75
2022/08/15 11:04:35;;;;;;;7.50;5.30;;;;;;;26.92;59.60;98567.75;1651048;85;21269;-74
2022/08/15 11:07:35;;;;;;;11.43;5.30;;;;;;;26.91;56.47;98564.76;1626215;85;21153;-77
2022/08/15 11:10:10;;;;;;;10.28;5.55;;;;;;;26.87;56.41;98558.14;1645273;85;21092;-73
2022/08/15 11:12:42;;;;;;;15.05;5.35;;;;;;;26.92;57.06;98571.75;1628688;86;21166;-74
2022/08/15 11:15:20;;;;;;;10.60;5.70;;;;;;;27.18;57.81;98554.67;1676610;84;20984;-74
2022/08/15 11:17:53;;;;;;;11.97;5.58;;;;;;;27.18;57.81;98554.67;1667777;84;21189;-77
2022/08/15 11:20:27;;;;;;;13.08;6.25;;;;;;;27.38;56.98;98565.52;1638360;85;21074;-77
2022/08/15 11:22:58;;;;;;;8.50;5.60;;;;;;;27.56;57.31;98561.90;1698912;83;21058;-77
2022/08/15 11:25:37;;;;;;;12.58;5.78;;;;;;;27.67;56.93;98548.03;1697457;84;22330;-76
2022/08/15 11:28:30;;;;;;;12.33;5.65;;;;;;;27.81;56.21;98565.48;1657216;85;21061;-83
2022/08/15 11:31:18;;;;;;;11.93;4.85;;;;;;;27.86;55.92;98568.39;1636197;86;21017;-79
2022/08/15 11:33:50;;;;;;;10.93;5.70;;;;;;;27.86;55.95;98565.72;1641909;85;21127;-80
2022/08/15 11:36:26;;;;;;;11.43;5.37;;;;;;;27.94;56.51;98571.75;1669443;84;21024;-76
2022/08/15 11:39:08;;;;;;;6.30;5.28;;;;;;;28.10;54.71;98573.28;1645420;86;21134;-76
2022/08/15 11:41:47;;;;;;;9.48;5.47;;;;;;;28.10;54.69;98587.47;1643265;85;21023;-76
2022/08/15 11:44:19;;;;;;;8.43;5.10;;;;;;;27.98;54.44;98586.35;1678302;83;21424;-79
2022/08/15 11:46:54;;;;;;;11.05;5.78;;;;;;;27.87;53.96;98584.74;1689094;83;21100;-78
2022/08/15 11:49:35;;;;;;;10.72;5.35;;;;;;;27.73;54.82;98583.33;1691041;83;21052;-77
2022/08/15 11:52:08;;;;;;;12.68;5.45;;;;;;;27.63;54.46;98586.83;1709479;82;21245;-81
2022/08/15 11:54:42;;;;;;;11.30;5.10;;;;;;;27.47;51.97;98582.25;1697021;82;21059;-80
2022/08/15 11:57:11;;;;;;;11.75;4.92;;;;;;;27.21;51.96;98568.98;1700683;82;21034;-78
2022/08/15 11:59:46;;;;;;;6.22;4.78;;;;;;;27.10;52.62;98562.83;1637846;83;21061;-77
2022/08/15 12:02:23;;;;;;;8.30;4.42;;;;;;;27.03;52.47;98556.59;1663677;83;21062;-79
2022/08/15 12:04:50;;;;;;;11.10;5.35;;;;;;;26.95;53.02;98555.40;1687175;82;21763;-79
2022/08/15 12:07:27;;;;;;;9.23;4.45;;;;;;;26.93;53.86;98552.88;1685251;83;21108;-80
2022/08/15 12:10:04;;;;;;;10.05;4.28;;;;;;;26.91;53.91;98552.24;1692986;82;21085;-80
2022/08/15 12:12:44;;;;;;;7.50;5.15;;;;;;;26.95;54.54;98550.06;1696634;82;21148;-79
2022/08/15 12:15:36;;;;;;;8.10;5.20;;;;;;;26.99;54.84;98545.97;1706299;82;21110;-78
2022/08/15 12:18:20;;;;;;;8.40;5.37;;;;;;;26.93;55.90;98566.73;1687249;83;21135;-82
2022/08/15 12:21:13;;;;;;;12.15;5.25;;;;;;;26.69;54.87;98568.73;1671079;83;38610;-78
2022/08/15 12:23:51;;;;;;;9.33;4.92;;;;;;;26.35;55.96;98556.53;1688827;83;22242;-79
2022/08/15 12:26:19;;;;;;;12.60;5.12;;;;;;;26.04;57.35;98559.35;1683736;83;21205;-76
2022/08/15 12:28:46;;;;;;;7.80;4.80;;;;;;;25.67;60.25;98564.25;1683782;82;21153;-77
2022/08/15 12:34:20;;;;;;;10.30;5.92;;;;;;;24.79;65.23;98567.36;1686392;83;21825;-79
2022/08/15 12:36:47;;;;;;;8.10;5.55;;;;;;;24.32;70.67;98572.28;1681941;84;21135;-79
2022/08/15 12:39:16;;;;;;;6.72;5.22;;;;;;;23.88;73.87;98579.02;1689226;82;20989;-79
2022/08/15 12:41:47;;;;;;;11.45;6.75;;;;;;;23.53;75.16;98580.24;1665374;84;21917;-78
2022/08/15 12:44:24;;;;;;;13.55;5.90;;;;;;;23.22;77.38;98580.03;1667402;84;21283;-78
2022/08/15 12:46:51;;;;;;;10.58;6.00;;;;;;;23.01;78.51;98576.53;1667588;84;21636;-76
2022/08/15 12:49:19;;;;;;;9.90;5.28;;;;;;;22.86;79.14;98586.95;1664624;85;21059;-78
2022/08/15 12:51:46;;;;;;;10.05;5.37;;;;;;;22.79;80.26;98585.94;1677187;84;21557;-79